sensor_id;sensor_type;location;lat;lon;timestamp;temperature;humidity
60717;DHT22;46566;52.700;6.192;2023-07-24T00:02:05;17.40;99.90
60717;DHT22;46566;52.700;6.192;2023-07-24T00:04:34;17.40;99.90
60717;DHT22;46566;52.700;6.192;2023-07-24T00:07:00;17.40;99.90
60717;DHT22;46566;52.700;6.192;2023-07-24T00:09:26;17.40;99.90
60717;DHT22;46566;52.700;6.192;2023-07-24T00:11:51;17.40;99.90
60717;DHT22;46566;52.700;6.192;2023-07-24T00:14:17;17.40;99.90
60717;DHT22;46566;52.700;6.192;2023-07-24T00:16:43;17.40;99.90
60717;DHT22;46566;52.700;6.192;2023-07-24T00:19:09;17.40;99.90
60717;DHT22;46566;52.700;6.192;2023-07-24T00:21:34;17.40;99.90
60717;DHT22;46566;52.700;6.192;2023-07-24T00:24:00;17.40;99.90
60717;DHT22;46566;52.700;6.192;2023-07-24T00:26:26;17.40;99.90
60717;DHT22;46566;52.700;6.192;2023-07-24T00:28:52;17.40;99.90
60717;DHT22;46566;52.700;6.192;2023-07-24T00:31:17;17.40;99.90
60717;DHT22;46566;52.700;6.192;2023-07-24T00:33:43;17.30;99.90
60717;DHT22;46566;52.700;6.192;2023-07-24T00:36:11;17.30;99.90
60717;DHT22;46566;52.700;6.192;2023-07-24T00:38:36;17.30;99.90
60717;DHT22;46566;52.700;6.192;2023-07-24T00:41:02;17.30;99.90
60717;DHT22;46566;52.700;6.192;2023-07-24T00:43:28;17.30;99.90
60717;DHT22;46566;52.700;6.192;2023-07-24T00:45:56;17.30;99.90
60717;DHT22;46566;52.700;6.192;2023-07-24T00:48:22;17.20;99.90
60717;DHT22;46566;52.700;6.192;2023-07-24T00:50:48;17.20;99.90
60717;DHT22;46566;52.700;6.192;2023-07-24T00:53:14;17.20;99.90
60717;DHT22;46566;52.700;6.192;2023-07-24T00:55:42;17.20;99.90
60717;DHT22;46566;52.700;6.192;2023-07-24T00:58:11;17.10;99.90
60717;DHT22;46566;52.700;6.192;2023-07-24T01:00:38;17.10;99.90
60717;DHT22;46566;52.700;6.192;2023-07-24T01:03:04;17.10;99.90
60717;DHT22;46566;52.700;6.192;2023-07-24T01:05:30;17.10;99.90
60717;DHT22;46566;52.700;6.192;2023-07-24T01:07:55;17.10;99.90
60717;DHT22;46566;52.700;6.192;2023-07-24T01:10:21;17.10;99.90
60717;DHT22;46566;52.700;6.192;2023-07-24T01:13:05;17.10;99.90
60717;DHT22;46566;52.700;6.192;2023-07-24T01:15:54;17.00;99.90
60717;DHT22;46566;52.700;6.192;2023-07-24T01:18:22;17.00;99.90
60717;DHT22;46566;52.700;6.192;2023-07-24T01:20:55;17.00;99.90
60717;DHT22;46566;52.700;6.192;2023-07-24T01:26:08;17.00;99.90
60717;DHT22;46566;52.700;6.192;2023-07-24T01:28:35;17.00;99.90
60717;DHT22;46566;52.700;6.192;2023-07-24T01:31:00;16.90;99.90
60717;DHT22;46566;52.700;6.192;2023-07-24T01:33:26;16.90;99.90
60717;DHT22;46566;52.700;6.192;2023-07-24T01:35:58;16.90;99.90
60717;DHT22;46566;52.700;6.192;2023-07-24T01:38:25;16.90;99.90
60717;DHT22;46566;52.700;6.192;2023-07-24T01:40:54;16.90;99.90
60717;DHT22;46566;52.700;6.192;2023-07-24T01:43:20;16.90;99.90
60717;DHT22;46566;52.700;6.192;2023-07-24T01:45:46;16.80;99.90
60717;DHT22;46566;52.700;6.192;2023-07-24T01:48:12;16.90;99.90
60717;DHT22;46566;52.700;6.192;2023-07-24T01:50:37;16.90;99.90
60717;DHT22;46566;52.700;6.192;2023-07-24T01:53:03;16.80;99.90
60717;DHT22;46566;52.700;6.192;2023-07-24T01:55:29;16.80;99.90
60717;DHT22;46566;52.700;6.192;2023-07-24T01:57:55;16.80;99.90
60717;DHT22;46566;52.700;6.192;2023-07-24T02:00:20;16.80;99.90
60717;DHT22;46566;52.700;6.192;2023-07-24T02:02:59;16.80;99.90
60717;DHT22;46566;52.700;6.192;2023-07-24T02:05:26;16.80;99.90
60717;DHT22;46566;52.700;6.192;2023-07-24T02:07:51;16.80;99.90
60717;DHT22;46566;52.700;6.192;2023-07-24T02:10:17;16.80;99.90
60717;DHT22;46566;52.700;6.192;2023-07-24T02:12:43;16.80;99.90
60717;DHT22;46566;52.700;6.192;2023-07-24T02:15:09;16.90;99.90
60717;DHT22;46566;52.700;6.192;2023-07-24T02:17:35;16.90;99.90
60717;DHT22;46566;52.700;6.192;2023-07-24T02:20:01;16.90;99.90
60717;DHT22;46566;52.700;6.192;2023-07-24T02:22:27;16.90;99.90
60717;DHT22;46566;52.700;6.192;2023-07-24T02:24:53;16.90;99.90
60717;DHT22;46566;52.700;6.192;2023-07-24T02:27:31;16.90;99.90
60717;DHT22;46566;52.700;6.192;2023-07-24T02:29:59;16.90;99.90
60717;DHT22;46566;52.700;6.192;2023-07-24T02:32:25;16.90;99.90
60717;DHT22;46566;52.700;6.192;2023-07-24T02:34:52;16.90;99.90
60717;DHT22;46566;52.700;6.192;2023-07-24T02:37:17;16.90;99.90
60717;DHT22;46566;52.700;6.192;2023-07-24T02:39:44;16.80;99.90
60717;DHT22;46566;52.700;6.192;2023-07-24T02:42:09;16.90;99.90
60717;DHT22;46566;52.700;6.192;2023-07-24T02:44:35;16.90;99.90
60717;DHT22;46566;52.700;6.192;2023-07-24T02:47:01;16.90;99.90
60717;DHT22;46566;52.700;6.192;2023-07-24T02:49:28;16.90;99.90
60717;DHT22;46566;52.700;6.192;2023-07-24T02:51:54;16.80;99.90
60717;DHT22;46566;52.700;6.192;2023-07-24T02:54:19;16.80;99.90
60717;DHT22;46566;52.700;6.192;2023-07-24T02:56:45;16.90;99.90
60717;DHT22;46566;52.700;6.192;2023-07-24T02:59:11;16.90;99.90
60717;DHT22;46566;52.700;6.192;2023-07-24T03:01:37;16.90;99.90
60717;DHT22;46566;52.700;6.192;2023-07-24T03:04:02;16.90;99.90
60717;DHT22;46566;52.700;6.192;2023-07-24T03:06:31;16.90;99.90
60717;DHT22;46566;52.700;6.192;2023-07-24T03:08:56;16.90;99.90
60717;DHT22;46566;52.700;6.192;2023-07-24T03:11:23;16.80;99.90
60717;DHT22;46566;52.700;6.192;2023-07-24T03:13:49;16.80;99.90
60717;DHT22;46566;52.700;6.192;2023-07-24T03:16:15;16.80;99.90
60717;DHT22;46566;52.700;6.192;2023-07-24T03:18:42;16.80;99.90
60717;DHT22;46566;52.700;6.192;2023-07-24T03:21:09;16.80;99.90
60717;DHT22;46566;52.700;6.192;2023-07-24T03:23:35;16.80;99.90
60717;DHT22;46566;52.700;6.192;2023-07-24T03:26:00;16.80;99.90
60717;DHT22;46566;52.700;6.192;2023-07-24T03:28:27;16.80;99.90
60717;DHT22;46566;52.700;6.192;2023-07-24T03:30:53;16.80;99.90
60717;DHT22;46566;52.700;6.192;2023-07-24T03:33:19;16.80;99.90
60717;DHT22;46566;52.700;6.192;2023-07-24T03:35:45;16.80;99.90
60717;DHT22;46566;52.700;6.192;2023-07-24T03:38:10;16.80;99.90
60717;DHT22;46566;52.700;6.192;2023-07-24T03:40:36;16.80;99.90
60717;DHT22;46566;52.700;6.192;2023-07-24T03:43:03;16.80;99.90
60717;DHT22;46566;52.700;6.192;2023-07-24T03:45:29;16.80;99.90
60717;DHT22;46566;52.700;6.192;2023-07-24T03:47:55;16.90;99.90
60717;DHT22;46566;52.700;6.192;2023-07-24T03:50:20;16.80;99.90
60717;DHT22;46566;52.700;6.192;2023-07-24T03:52:46;16.80;99.90
60717;DHT22;46566;52.700;6.192;2023-07-24T03:55:12;16.80;99.90
60717;DHT22;46566;52.700;6.192;2023-07-24T03:57:37;16.80;99.90
60717;DHT22;46566;52.700;6.192;2023-07-24T04:00:04;16.80;99.90
60717;DHT22;46566;52.700;6.192;2023-07-24T04:02:38;16.80;99.90
60717;DHT22;46566;52.700;6.192;2023-07-24T04:05:05;16.80;99.90
60717;DHT22;46566;52.700;6.192;2023-07-24T04:07:31;16.80;99.90
60717;DHT22;46566;52.700;6.192;2023-07-24T04:09:56;16.80;99.90
60717;DHT22;46566;52.700;6.192;2023-07-24T04:12:22;16.80;99.90
60717;DHT22;46566;52.700;6.192;2023-07-24T04:14:48;16.80;99.90
60717;DHT22;46566;52.700;6.192;2023-07-24T04:17:14;16.80;99.90
60717;DHT22;46566;52.700;6.192;2023-07-24T04:19:40;16.80;99.90
60717;DHT22;46566;52.700;6.192;2023-07-24T04:22:06;16.80;99.90
60717;DHT22;46566;52.700;6.192;2023-07-24T04:24:32;16.80;99.90
60717;DHT22;46566;52.700;6.192;2023-07-24T04:26:57;16.70;99.90
60717;DHT22;46566;52.700;6.192;2023-07-24T04:29:23;16.70;99.90
60717;DHT22;46566;52.700;6.192;2023-07-24T04:31:51;16.70;99.90
60717;DHT22;46566;52.700;6.192;2023-07-24T04:34:17;16.70;99.90
60717;DHT22;46566;52.700;6.192;2023-07-24T04:36:43;16.70;99.90
60717;DHT22;46566;52.700;6.192;2023-07-24T04:39:08;16.70;99.90
60717;DHT22;46566;52.700;6.192;2023-07-24T04:41:34;16.70;99.90
60717;DHT22;46566;52.700;6.192;2023-07-24T04:44:00;16.70;99.90
60717;DHT22;46566;52.700;6.192;2023-07-24T04:46:26;16.70;99.90
60717;DHT22;46566;52.700;6.192;2023-07-24T04:48:51;16.70;99.90
60717;DHT22;46566;52.700;6.192;2023-07-24T04:51:17;16.70;99.90
60717;DHT22;46566;52.700;6.192;2023-07-24T04:53:44;16.70;99.90
60717;DHT22;46566;52.700;6.192;2023-07-24T04:56:10;16.70;99.90
60717;DHT22;46566;52.700;6.192;2023-07-24T04:58:36;16.70;99.90
60717;DHT22;46566;52.700;6.192;2023-07-24T05:01:03;16.70;99.90
60717;DHT22;46566;52.700;6.192;2023-07-24T05:03:29;16.70;99.90
60717;DHT22;46566;52.700;6.192;2023-07-24T05:05:55;16.80;99.90
60717;DHT22;46566;52.700;6.192;2023-07-24T05:08:22;16.80;99.90
60717;DHT22;46566;52.700;6.192;2023-07-24T05:10:54;16.80;99.90
60717;DHT22;46566;52.700;6.192;2023-07-24T05:13:20;16.80;99.90
60717;DHT22;46566;52.700;6.192;2023-07-24T05:15:45;16.80;99.90
60717;DHT22;46566;52.700;6.192;2023-07-24T05:18:11;16.80;99.90
60717;DHT22;46566;52.700;6.192;2023-07-24T05:20:37;16.80;99.90
60717;DHT22;46566;52.700;6.192;2023-07-24T05:23:02;16.90;99.90
60717;DHT22;46566;52.700;6.192;2023-07-24T05:25:28;16.90;99.90
60717;DHT22;46566;52.700;6.192;2023-07-24T05:27:54;16.90;99.90
60717;DHT22;46566;52.700;6.192;2023-07-24T05:30:19;17.00;99.90
60717;DHT22;46566;52.700;6.192;2023-07-24T05:32:45;17.00;99.90
60717;DHT22;46566;52.700;6.192;2023-07-24T05:35:11;17.00;99.90
60717;DHT22;46566;52.700;6.192;2023-07-24T05:37:36;17.00;99.90
60717;DHT22;46566;52.700;6.192;2023-07-24T05:40:03;17.00;99.90
60717;DHT22;46566;52.700;6.192;2023-07-24T05:42:28;17.00;99.90
60717;DHT22;46566;52.700;6.192;2023-07-24T05:44:54;17.00;99.90
60717;DHT22;46566;52.700;6.192;2023-07-24T05:47:20;17.10;99.90
60717;DHT22;46566;52.700;6.192;2023-07-24T05:49:45;17.10;99.90
60717;DHT22;46566;52.700;6.192;2023-07-24T05:52:11;17.10;99.90
60717;DHT22;46566;52.700;6.192;2023-07-24T05:54:37;17.00;99.90
60717;DHT22;46566;52.700;6.192;2023-07-24T05:57:03;17.10;99.90
60717;DHT22;46566;52.700;6.192;2023-07-24T05:59:28;17.10;99.90
60717;DHT22;46566;52.700;6.192;2023-07-24T06:01:54;17.10;99.90
60717;DHT22;46566;52.700;6.192;2023-07-24T06:04:20;17.10;99.90
60717;DHT22;46566;52.700;6.192;2023-07-24T06:06:45;17.10;99.90
60717;DHT22;46566;52.700;6.192;2023-07-24T06:09:11;17.10;99.90
60717;DHT22;46566;52.700;6.192;2023-07-24T06:11:37;17.20;99.90
60717;DHT22;46566;52.700;6.192;2023-07-24T06:14:02;17.20;99.90
60717;DHT22;46566;52.700;6.192;2023-07-24T06:16:29;17.30;99.90
60717;DHT22;46566;52.700;6.192;2023-07-24T06:18:54;17.40;99.90
60717;DHT22;46566;52.700;6.192;2023-07-24T06:21:20;17.50;99.90
60717;DHT22;46566;52.700;6.192;2023-07-24T06:23:46;17.50;99.90
60717;DHT22;46566;52.700;6.192;2023-07-24T06:26:11;17.60;99.90
60717;DHT22;46566;52.700;6.192;2023-07-24T06:28:37;17.70;99.90
60717;DHT22;46566;52.700;6.192;2023-07-24T06:31:03;17.70;99.90
60717;DHT22;46566;52.700;6.192;2023-07-24T06:33:28;17.80;99.90
60717;DHT22;46566;52.700;6.192;2023-07-24T06:35:54;17.90;99.90
60717;DHT22;46566;52.700;6.192;2023-07-24T06:38:20;17.90;99.90
60717;DHT22;46566;52.700;6.192;2023-07-24T06:40:47;17.90;99.90
60717;DHT22;46566;52.700;6.192;2023-07-24T06:43:12;17.90;99.90
60717;DHT22;46566;52.700;6.192;2023-07-24T06:45:38;18.00;99.90
60717;DHT22;46566;52.700;6.192;2023-07-24T06:48:04;18.00;99.90
60717;DHT22;46566;52.700;6.192;2023-07-24T06:52:57;18.10;99.90
60717;DHT22;46566;52.700;6.192;2023-07-24T06:55:23;18.10;99.90
60717;DHT22;46566;52.700;6.192;2023-07-24T06:57:49;18.10;99.90
60717;DHT22;46566;52.700;6.192;2023-07-24T07:00:14;18.20;99.90
60717;DHT22;46566;52.700;6.192;2023-07-24T07:02:40;18.20;99.90
60717;DHT22;46566;52.700;6.192;2023-07-24T07:05:06;18.30;99.90
60717;DHT22;46566;52.700;6.192;2023-07-24T07:14:50;18.30;99.90
60717;DHT22;46566;52.700;6.192;2023-07-24T07:19:42;18.60;99.90
60717;DHT22;46566;52.700;6.192;2023-07-24T07:22:08;18.80;99.90
60717;DHT22;46566;52.700;6.192;2023-07-24T07:24:33;18.80;99.90
60717;DHT22;46566;52.700;6.192;2023-07-24T07:26:59;18.90;99.90
60717;DHT22;46566;52.700;6.192;2023-07-24T07:29:25;18.90;99.90
60717;DHT22;46566;52.700;6.192;2023-07-24T07:31:51;18.80;99.90
60717;DHT22;46566;52.700;6.192;2023-07-24T07:34:16;18.80;99.90
60717;DHT22;46566;52.700;6.192;2023-07-24T07:36:43;18.80;99.90
60717;DHT22;46566;52.700;6.192;2023-07-24T07:39:08;18.80;99.90
60717;DHT22;46566;52.700;6.192;2023-07-24T07:41:35;18.80;99.90
60717;DHT22;46566;52.700;6.192;2023-07-24T07:44:01;18.80;99.90
60717;DHT22;46566;52.700;6.192;2023-07-24T07:46:26;18.80;99.90
60717;DHT22;46566;52.700;6.192;2023-07-24T07:48:52;18.90;99.90
60717;DHT22;46566;52.700;6.192;2023-07-24T07:51:18;18.90;99.90
60717;DHT22;46566;52.700;6.192;2023-07-24T07:53:43;18.90;99.90
60717;DHT22;46566;52.700;6.192;2023-07-24T07:56:09;18.90;99.90
60717;DHT22;46566;52.700;6.192;2023-07-24T07:58:35;18.90;99.90
60717;DHT22;46566;52.700;6.192;2023-07-24T08:01:05;18.90;99.90
60717;DHT22;46566;52.700;6.192;2023-07-24T08:03:31;18.90;99.90
60717;DHT22;46566;52.700;6.192;2023-07-24T08:05:57;19.00;99.90
60717;DHT22;46566;52.700;6.192;2023-07-24T08:08:23;19.10;99.90
60717;DHT22;46566;52.700;6.192;2023-07-24T08:10:49;19.20;99.90
60717;DHT22;46566;52.700;6.192;2023-07-24T08:13:15;19.20;99.90
60717;DHT22;46566;52.700;6.192;2023-07-24T08:15:41;19.30;99.90
60717;DHT22;46566;52.700;6.192;2023-07-24T08:18:07;19.40;99.90
60717;DHT22;46566;52.700;6.192;2023-07-24T08:20:35;19.40;99.90
60717;DHT22;46566;52.700;6.192;2023-07-24T08:23:01;19.40;99.90
60717;DHT22;46566;52.700;6.192;2023-07-24T08:25:27;19.40;99.90
60717;DHT22;46566;52.700;6.192;2023-07-24T08:27:53;19.40;99.90
60717;DHT22;46566;52.700;6.192;2023-07-24T08:30:18;19.40;99.90
60717;DHT22;46566;52.700;6.192;2023-07-24T08:32:44;19.50;99.90
60717;DHT22;46566;52.700;6.192;2023-07-24T08:35:10;19.50;99.90
60717;DHT22;46566;52.700;6.192;2023-07-24T08:37:36;19.50;99.90
60717;DHT22;46566;52.700;6.192;2023-07-24T08:40:02;19.50;99.90
60717;DHT22;46566;52.700;6.192;2023-07-24T08:42:28;19.60;99.90
60717;DHT22;46566;52.700;6.192;2023-07-24T08:44:58;19.60;99.90
60717;DHT22;46566;52.700;6.192;2023-07-24T08:47:27;19.60;99.90
60717;DHT22;46566;52.700;6.192;2023-07-24T08:49:55;19.60;99.90
60717;DHT22;46566;52.700;6.192;2023-07-24T08:52:21;19.60;99.90
60717;DHT22;46566;52.700;6.192;2023-07-24T08:54:48;19.50;99.90
60717;DHT22;46566;52.700;6.192;2023-07-24T08:57:14;19.60;99.90
60717;DHT22;46566;52.700;6.192;2023-07-24T08:59:40;19.80;99.90
60717;DHT22;46566;52.700;6.192;2023-07-24T09:02:06;19.90;99.90
60717;DHT22;46566;52.700;6.192;2023-07-24T09:04:32;19.90;99.90
60717;DHT22;46566;52.700;6.192;2023-07-24T09:06:58;20.00;99.90
60717;DHT22;46566;52.700;6.192;2023-07-24T09:09:29;20.10;99.90
60717;DHT22;46566;52.700;6.192;2023-07-24T09:11:55;20.10;99.90
60717;DHT22;46566;52.700;6.192;2023-07-24T09:14:26;20.20;99.90
60717;DHT22;46566;52.700;6.192;2023-07-24T09:17:21;20.30;99.90
60717;DHT22;46566;52.700;6.192;2023-07-24T09:19:56;20.50;99.90
60717;DHT22;46566;52.700;6.192;2023-07-24T09:22:22;20.90;99.90
60717;DHT22;46566;52.700;6.192;2023-07-24T09:24:55;21.20;99.90
60717;DHT22;46566;52.700;6.192;2023-07-24T09:27:25;21.80;99.90
60717;DHT22;46566;52.700;6.192;2023-07-24T09:29:51;22.60;99.90
60717;DHT22;46566;52.700;6.192;2023-07-24T09:32:21;22.90;99.90
60717;DHT22;46566;52.700;6.192;2023-07-24T09:34:48;22.70;99.90
60717;DHT22;46566;52.700;6.192;2023-07-24T09:37:46;22.80;99.90
60717;DHT22;46566;52.700;6.192;2023-07-24T09:40:14;23.30;99.90
60717;DHT22;46566;52.700;6.192;2023-07-24T09:42:40;23.70;99.90
60717;DHT22;46566;52.700;6.192;2023-07-24T09:45:07;23.90;99.90
60717;DHT22;46566;52.700;6.192;2023-07-24T09:47:34;23.90;99.90
60717;DHT22;46566;52.700;6.192;2023-07-24T09:50:03;24.10;99.90
60717;DHT22;46566;52.700;6.192;2023-07-24T09:52:29;24.30;99.90
60717;DHT22;46566;52.700;6.192;2023-07-24T09:55:15;24.50;99.90
60717;DHT22;46566;52.700;6.192;2023-07-24T09:57:41;24.50;99.90
60717;DHT22;46566;52.700;6.192;2023-07-24T10:00:09;24.40;99.90
60717;DHT22;46566;52.700;6.192;2023-07-24T10:02:36;23.90;99.90
60717;DHT22;46566;52.700;6.192;2023-07-24T10:05:03;23.60;99.90
60717;DHT22;46566;52.700;6.192;2023-07-24T10:07:29;23.40;99.90
60717;DHT22;46566;52.700;6.192;2023-07-24T10:09:56;23.30;99.90
60717;DHT22;46566;52.700;6.192;2023-07-24T10:12:23;23.20;99.90
60717;DHT22;46566;52.700;6.192;2023-07-24T10:14:49;23.00;99.90
60717;DHT22;46566;52.700;6.192;2023-07-24T10:17:33;22.80;99.90
60717;DHT22;46566;52.700;6.192;2023-07-24T10:20:04;22.70;99.90
60717;DHT22;46566;52.700;6.192;2023-07-24T10:22:30;22.90;99.90
60717;DHT22;46566;52.700;6.192;2023-07-24T10:24:56;23.00;99.90
60717;DHT22;46566;52.700;6.192;2023-07-24T10:27:26;23.20;99.90
60717;DHT22;46566;52.700;6.192;2023-07-24T10:30:04;23.00;99.90
60717;DHT22;46566;52.700;6.192;2023-07-24T10:32:30;23.00;99.90
60717;DHT22;46566;52.700;6.192;2023-07-24T10:34:59;23.00;99.90
60717;DHT22;46566;52.700;6.192;2023-07-24T10:37:33;22.90;99.90
60717;DHT22;46566;52.700;6.192;2023-07-24T10:39:59;22.80;99.90
60717;DHT22;46566;52.700;6.192;2023-07-24T10:42:25;22.70;99.90
60717;DHT22;46566;52.700;6.192;2023-07-24T10:45:08;22.60;99.90
60717;DHT22;46566;52.700;6.192;2023-07-24T10:50:00;22.50;99.90
60717;DHT22;46566;52.700;6.192;2023-07-24T10:52:31;22.30;99.90
60717;DHT22;46566;52.700;6.192;2023-07-24T10:55:02;22.30;99.90
60717;DHT22;46566;52.700;6.192;2023-07-24T10:57:29;22.20;99.90
60717;DHT22;46566;52.700;6.192;2023-07-24T10:59:55;22.20;99.90
60717;DHT22;46566;52.700;6.192;2023-07-24T11:02:21;22.20;99.90
60717;DHT22;46566;52.700;6.192;2023-07-24T11:04:47;22.30;99.90
60717;DHT22;46566;52.700;6.192;2023-07-24T11:07:13;22.40;99.90
60717;DHT22;46566;52.700;6.192;2023-07-24T11:09:39;22.40;99.90
60717;DHT22;46566;52.700;6.192;2023-07-24T11:12:13;22.50;99.90
60717;DHT22;46566;52.700;6.192;2023-07-24T11:14:50;22.50;99.90
60717;DHT22;46566;52.700;6.192;2023-07-24T11:17:16;22.50;99.90
60717;DHT22;46566;52.700;6.192;2023-07-24T11:19:41;22.40;99.90
60717;DHT22;46566;52.700;6.192;2023-07-24T11:22:07;22.60;99.90
60717;DHT22;46566;52.700;6.192;2023-07-24T11:24:34;22.70;99.90
60717;DHT22;46566;52.700;6.192;2023-07-24T11:29:41;22.70;99.90
60717;DHT22;46566;52.700;6.192;2023-07-24T11:32:07;22.70;99.90
60717;DHT22;46566;52.700;6.192;2023-07-24T11:34:33;22.60;99.90
60717;DHT22;46566;52.700;6.192;2023-07-24T11:37:00;22.60;99.90
60717;DHT22;46566;52.700;6.192;2023-07-24T11:39:26;22.50;99.90
60717;DHT22;46566;52.700;6.192;2023-07-24T11:41:52;22.50;99.90
60717;DHT22;46566;52.700;6.192;2023-07-24T11:44:28;22.60;99.90
60717;DHT22;46566;52.700;6.192;2023-07-24T11:47:04;22.60;99.90
60717;DHT22;46566;52.700;6.192;2023-07-24T11:49:31;22.70;99.90
60717;DHT22;46566;52.700;6.192;2023-07-24T11:52:04;22.80;99.90
60717;DHT22;46566;52.700;6.192;2023-07-24T11:56:57;23.00;99.90
60717;DHT22;46566;52.700;6.192;2023-07-24T12:01:50;23.40;99.90
60717;DHT22;46566;52.700;6.192;2023-07-24T12:04:16;23.90;99.90
60717;DHT22;46566;52.700;6.192;2023-07-24T12:06:42;24.10;99.90
60717;DHT22;46566;52.700;6.192;2023-07-24T12:11:40;24.40;99.90
60717;DHT22;46566;52.700;6.192;2023-07-24T12:14:06;24.30;99.90
60717;DHT22;46566;52.700;6.192;2023-07-24T12:16:34;24.30;99.90
60717;DHT22;46566;52.700;6.192;2023-07-24T12:19:00;24.40;99.90
60717;DHT22;46566;52.700;6.192;2023-07-24T12:21:26;24.60;99.90
60717;DHT22;46566;52.700;6.192;2023-07-24T12:23:51;24.90;99.90
60717;DHT22;46566;52.700;6.192;2023-07-24T12:26:17;24.90;99.90
60717;DHT22;46566;52.700;6.192;2023-07-24T12:28:42;24.70;99.90
60717;DHT22;46566;52.700;6.192;2023-07-24T12:31:08;24.60;99.90
60717;DHT22;46566;52.700;6.192;2023-07-24T12:33:34;24.60;99.90
60717;DHT22;46566;52.700;6.192;2023-07-24T12:36:00;24.80;99.90
60717;DHT22;46566;52.700;6.192;2023-07-24T12:38:27;25.00;99.90
60717;DHT22;46566;52.700;6.192;2023-07-24T12:40:53;24.90;99.90
60717;DHT22;46566;52.700;6.192;2023-07-24T12:43:18;24.60;99.90
60717;DHT22;46566;52.700;6.192;2023-07-24T12:45:44;24.40;99.90
60717;DHT22;46566;52.700;6.192;2023-07-24T12:48:10;24.20;99.90
60717;DHT22;46566;52.700;6.192;2023-07-24T12:50:36;24.00;99.90
60717;DHT22;46566;52.700;6.192;2023-07-24T12:53:01;23.70;99.90
60717;DHT22;46566;52.700;6.192;2023-07-24T13:02:49;23.50;99.90
60717;DHT22;46566;52.700;6.192;2023-07-24T13:05:14;22.70;99.90
60717;DHT22;46566;52.700;6.192;2023-07-24T13:10:09;22.50;99.90
60717;DHT22;46566;52.700;6.192;2023-07-24T13:12:35;22.10;99.90
60717;DHT22;46566;52.700;6.192;2023-07-24T13:15:01;22.00;99.90
60717;DHT22;46566;52.700;6.192;2023-07-24T13:27:13;21.70;99.90
60717;DHT22;46566;52.700;6.192;2023-07-24T13:29:38;21.60;99.90
60717;DHT22;46566;52.700;6.192;2023-07-24T13:49:10;21.60;99.90
60717;DHT22;46566;52.700;6.192;2023-07-24T14:06:17;21.60;99.90
60717;DHT22;46566;52.700;6.192;2023-07-24T14:11:09;21.30;99.90
60717;DHT22;46566;52.700;6.192;2023-07-24T14:13:35;21.20;99.90
60717;DHT22;46566;52.700;6.192;2023-07-24T14:16:00;21.20;99.90
60717;DHT22;46566;52.700;6.192;2023-07-24T14:18:26;21.20;99.90
60717;DHT22;46566;52.700;6.192;2023-07-24T14:20:52;21.20;99.90
60717;DHT22;46566;52.700;6.192;2023-07-24T14:23:20;21.30;99.90
60717;DHT22;46566;52.700;6.192;2023-07-24T14:25:45;21.30;99.90
60717;DHT22;46566;52.700;6.192;2023-07-24T14:28:11;21.40;99.90
60717;DHT22;46566;52.700;6.192;2023-07-24T14:30:37;21.40;99.90
60717;DHT22;46566;52.700;6.192;2023-07-24T14:33:03;21.50;99.90
60717;DHT22;46566;52.700;6.192;2023-07-24T14:35:28;21.50;99.90
60717;DHT22;46566;52.700;6.192;2023-07-24T14:37:54;21.60;99.90
60717;DHT22;46566;52.700;6.192;2023-07-24T14:40:20;21.70;99.90
60717;DHT22;46566;52.700;6.192;2023-07-24T14:42:45;22.00;99.90
60717;DHT22;46566;52.700;6.192;2023-07-24T14:45:11;22.10;99.90
60717;DHT22;46566;52.700;6.192;2023-07-24T14:47:37;22.10;99.90
60717;DHT22;46566;52.700;6.192;2023-07-24T14:50:03;22.00;99.90
60717;DHT22;46566;52.700;6.192;2023-07-24T14:52:29;21.90;99.90
60717;DHT22;46566;52.700;6.192;2023-07-24T14:54:56;21.80;99.90
60717;DHT22;46566;52.700;6.192;2023-07-24T14:57:22;21.70;99.90
60717;DHT22;46566;52.700;6.192;2023-07-24T14:59:48;21.70;99.90
60717;DHT22;46566;52.700;6.192;2023-07-24T15:02:13;21.80;99.90
60717;DHT22;46566;52.700;6.192;2023-07-24T15:04:39;21.90;99.90
60717;DHT22;46566;52.700;6.192;2023-07-24T15:07:05;22.00;99.90
60717;DHT22;46566;52.700;6.192;2023-07-24T15:09:31;21.90;99.90
60717;DHT22;46566;52.700;6.192;2023-07-24T15:11:56;21.90;99.90
60717;DHT22;46566;52.700;6.192;2023-07-24T15:14:22;21.90;99.90
60717;DHT22;46566;52.700;6.192;2023-07-24T15:16:50;21.90;99.90
60717;DHT22;46566;52.700;6.192;2023-07-24T15:19:16;21.80;99.90
60717;DHT22;46566;52.700;6.192;2023-07-24T15:21:42;21.70;99.90
60717;DHT22;46566;52.700;6.192;2023-07-24T15:24:07;21.60;99.90
60717;DHT22;46566;52.700;6.192;2023-07-24T15:26:33;21.30;99.90
60717;DHT22;46566;52.700;6.192;2023-07-24T15:28:59;21.20;99.90
60717;DHT22;46566;52.700;6.192;2023-07-24T15:31:24;21.00;99.90
60717;DHT22;46566;52.700;6.192;2023-07-24T15:33:50;20.90;99.90
60717;DHT22;46566;52.700;6.192;2023-07-24T15:36:16;20.80;99.90
60717;DHT22;46566;52.700;6.192;2023-07-24T15:38:42;20.80;99.90
60717;DHT22;46566;52.700;6.192;2023-07-24T15:41:08;20.80;99.90
60717;DHT22;46566;52.700;6.192;2023-07-24T15:43:33;20.70;99.90
60717;DHT22;46566;52.700;6.192;2023-07-24T15:45:59;20.60;99.90
60717;DHT22;46566;52.700;6.192;2023-07-24T15:48:25;20.60;99.90
60717;DHT22;46566;52.700;6.192;2023-07-24T15:50:50;20.50;99.90
60717;DHT22;46566;52.700;6.192;2023-07-24T15:53:16;20.60;99.90
60717;DHT22;46566;52.700;6.192;2023-07-24T15:55:42;20.50;99.90
60717;DHT22;46566;52.700;6.192;2023-07-24T15:58:07;20.50;99.90
60717;DHT22;46566;52.700;6.192;2023-07-24T16:00:33;20.50;99.90
60717;DHT22;46566;52.700;6.192;2023-07-24T16:02:59;20.50;99.90
60717;DHT22;46566;52.700;6.192;2023-07-24T16:05:25;20.40;99.90
60717;DHT22;46566;52.700;6.192;2023-07-24T16:07:50;20.30;99.90
60717;DHT22;46566;52.700;6.192;2023-07-24T16:10:16;20.30;99.90
60717;DHT22;46566;52.700;6.192;2023-07-24T16:12:42;20.20;99.90
60717;DHT22;46566;52.700;6.192;2023-07-24T16:15:09;20.10;99.90
60717;DHT22;46566;52.700;6.192;2023-07-24T16:17:35;20.00;99.90
60717;DHT22;46566;52.700;6.192;2023-07-24T16:20:01;20.00;99.90
60717;DHT22;46566;52.700;6.192;2023-07-24T16:22:28;19.90;99.90
60717;DHT22;46566;52.700;6.192;2023-07-24T16:24:54;19.90;99.90
60717;DHT22;46566;52.700;6.192;2023-07-24T16:27:19;19.90;99.90
60717;DHT22;46566;52.700;6.192;2023-07-24T16:29:45;19.80;99.90
60717;DHT22;46566;52.700;6.192;2023-07-24T16:32:11;19.70;99.90
60717;DHT22;46566;52.700;6.192;2023-07-24T16:34:36;19.50;99.90
60717;DHT22;46566;52.700;6.192;2023-07-24T16:37:03;19.40;99.90
60717;DHT22;46566;52.700;6.192;2023-07-24T16:39:30;19.30;99.90
60717;DHT22;46566;52.700;6.192;2023-07-24T16:41:56;19.20;99.90
60717;DHT22;46566;52.700;6.192;2023-07-24T16:44:22;19.10;99.90
60717;DHT22;46566;52.700;6.192;2023-07-24T16:46:53;19.10;99.90
60717;DHT22;46566;52.700;6.192;2023-07-24T16:49:20;19.10;99.90